Time;durP1;ratioP1;P1;durP2;ratioP2;P2;SDS_P1;SDS_P2;PMS_P1;PMS_P2;Temp;Humidity;BMP_temperature;BMP_pressure;BME280_temperature;BME280_humidity;BME280_pressure;Samples;Min_cycle;Max_cycle;Signal;HPM_P1;HPM_P2
2021/04/14 00:02:06;;;;;;;4.57;2.53;;;;;;;;;;5084387;28;20519;-60
2021/04/14 00:04:32;;;;;;;3.87;2.63;;;;;;;;;;5085652;28;20251;-58
2021/04/14 00:07:01;;;;;;;3.07;2.07;;;;;;;;;;5064688;28;20433;-58
2021/04/14 00:09:28;;;;;;;3.83;2.23;;;;;;;;;;5083305;28;20426;-59
2021/04/14 00:11:54;;;;;;;2.53;2.17;;;;;;;;;;5081357;28;20475;-58
2021/04/14 00:14:20;;;;;;;3.33;2.50;;;;;;;;;;5085147;28;20449;-58
2021/04/14 00:16:46;;;;;;;3.73;2.33;;;;;;;;;;5092099;28;20493;-59
2021/04/14 00:19:12;;;;;;;2.83;2.10;;;;;;;;;;5091243;28;20434;-58
2021/04/14 00:21:38;;;;;;;8.00;2.30;;;;;;;;;;5088511;28;20776;-59
2021/04/14 00:24:04;;;;;;;3.00;2.00;;;;;;;;;;5088700;28;20187;-58
2021/04/14 00:26:30;;;;;;;3.77;2.17;;;;;;;;;;5079290;28;20433;-60
2021/04/14 00:28:56;;;;;;;5.23;1.97;;;;;;;;;;5090971;28;20414;-59
2021/04/14 00:31:35;;;;;;;3.73;1.90;;;;;;;;;;5087871;28;20441;-59
2021/04/14 00:34:05;;;;;;;5.33;2.50;;;;;;;;;;5084199;28;20409;-59
2021/04/14 00:36:31;;;;;;;4.07;2.07;;;;;;;;;;5085190;28;20821;-60
2021/04/14 00:38:57;;;;;;;3.50;1.90;;;;;;;;;;5089076;28;20430;-59
2021/04/14 00:41:23;;;;;;;2.60;1.80;;;;;;;;;;5081165;28;20414;-59
2021/04/14 00:43:50;;;;;;;2.00;1.83;;;;;;;;;;5084589;28;20793;-59
2021/04/14 00:46:16;;;;;;;1.90;1.70;;;;;;;;;;5070994;28;20495;-60
2021/04/14 00:48:42;;;;;;;2.00;1.50;;;;;;;;;;5084385;28;20417;-60
2021/04/14 00:51:08;;;;;;;3.00;1.60;;;;;;;;;;5084985;28;20258;-59
2021/04/14 00:53:34;;;;;;;2.30;1.70;;;;;;;;;;5089242;28;20900;-58
2021/04/14 00:56:01;;;;;;;2.97;1.77;;;;;;;;;;5060019;28;20422;-58
2021/04/14 00:58:27;;;;;;;3.50;1.90;;;;;;;;;;5072300;28;20458;-59
2021/04/14 01:00:53;;;;;;;4.50;2.43;;;;;;;;;;5083625;28;20425;-59
2021/04/14 01:03:35;;;;;;;2.33;2.00;;;;;;;;;;5079900;28;20433;-61
2021/04/14 01:06:09;;;;;;;2.80;1.80;;;;;;;;;;5083856;28;20499;-59
2021/04/14 01:08:35;;;;;;;2.00;1.80;;;;;;;;;;5087676;28;20520;-59
2021/04/14 01:11:02;;;;;;;2.63;1.53;;;;;;;;;;5090165;28;20422;-61
2021/04/14 01:13:28;;;;;;;4.60;1.73;;;;;;;;;;5089855;28;20433;-59
2021/04/14 01:15:54;;;;;;;2.73;1.80;;;;;;;;;;5087254;28;20421;-59
2021/04/14 01:18:21;;;;;;;3.20;2.07;;;;;;;;;;5065351;28;20465;-59
2021/04/14 01:20:48;;;;;;;6.93;2.43;;;;;;;;;;5084124;28;20432;-59
2021/04/14 01:23:14;;;;;;;3.93;2.03;;;;;;;;;;5085735;28;20422;-59
2021/04/14 01:25:41;;;;;;;2.63;1.87;;;;;;;;;;5082450;28;20912;-59
2021/04/14 01:28:15;;;;;;;2.53;1.90;;;;;;;;;;5071684;28;20414;-59
2021/04/14 01:30:42;;;;;;;2.90;2.00;;;;;;;;;;5070248;28;20466;-58
2021/04/14 01:33:09;;;;;;;4.20;1.87;;;;;;;;;;5064229;28;20457;-59
2021/04/14 01:35:35;;;;;;;2.40;1.77;;;;;;;;;;5081057;28;20441;-61
2021/04/14 01:38:01;;;;;;;2.30;1.70;;;;;;;;;;5086082;28;20510;-59
2021/04/14 01:40:27;;;;;;;2.83;2.10;;;;;;;;;;5078443;28;20407;-60
2021/04/14 01:42:54;;;;;;;3.07;2.00;;;;;;;;;;5090947;28;20764;-59
2021/04/14 01:45:23;;;;;;;4.60;1.50;;;;;;;;;;5086959;28;20440;-58
2021/04/14 01:47:49;;;;;;;2.37;1.70;;;;;;;;;;5083958;28;20524;-59
2021/04/14 01:50:16;;;;;;;4.50;2.40;;;;;;;;;;5081020;28;20449;-59
2021/04/14 01:52:42;;;;;;;3.43;1.80;;;;;;;;;;5085266;28;20433;-58
2021/04/14 01:55:09;;;;;;;5.90;1.93;;;;;;;;;;5085681;28;20987;-59
2021/04/14 01:57:35;;;;;;;4.70;2.00;;;;;;;;;;5072149;28;20454;-59
2021/04/14 02:00:02;;;;;;;3.53;2.10;;;;;;;;;;5082867;28;20413;-61
2021/04/14 02:02:28;;;;;;;2.17;1.80;;;;;;;;;;5085053;28;20433;-59
2021/04/14 02:04:54;;;;;;;3.80;2.30;;;;;;;;;;5082882;28;20417;-60
2021/04/14 02:07:20;;;;;;;2.17;1.97;;;;;;;;;;5083511;28;20188;-58
2021/04/14 02:09:46;;;;;;;2.47;2.03;;;;;;;;;;5082839;28;20798;-59
2021/04/14 02:12:12;;;;;;;2.23;1.83;;;;;;;;;;5074685;28;20476;-59
2021/04/14 02:14:38;;;;;;;2.70;1.60;;;;;;;;;;5085326;28;20198;-59
2021/04/14 02:17:05;;;;;;;4.00;2.07;;;;;;;;;;5084976;28;20819;-58
2021/04/14 02:19:31;;;;;;;1.90;1.70;;;;;;;;;;5061818;28;20577;-60
2021/04/14 02:21:57;;;;;;;3.40;1.90;;;;;;;;;;5087239;28;20461;-59
2021/04/14 02:24:23;;;;;;;2.53;1.70;;;;;;;;;;5089652;28;20880;-59
2021/04/14 02:26:49;;;;;;;2.37;1.70;;;;;;;;;;5079640;28;20424;-59
2021/04/14 02:29:15;;;;;;;2.40;2.20;;;;;;;;;;5103528;28;20449;-59
2021/04/14 02:31:41;;;;;;;2.90;1.87;;;;;;;;;;5070089;28;20927;-58
2021/04/14 02:34:09;;;;;;;1.77;1.60;;;;;;;;;;5071548;28;20445;-60
2021/04/14 02:36:35;;;;;;;2.83;2.27;;;;;;;;;;5085588;28;20441;-58
2021/04/14 02:39:01;;;;;;;4.50;2.00;;;;;;;;;;5091396;28;20433;-58
2021/04/14 02:41:27;;;;;;;2.83;2.07;;;;;;;;;;5075411;28;20471;-58
2021/04/14 02:43:54;;;;;;;2.30;2.07;;;;;;;;;;5092738;28;20432;-59
2021/04/14 02:46:21;;;;;;;3.13;2.50;;;;;;;;;;5086920;28;20916;-58
2021/04/14 02:48:47;;;;;;;3.70;1.93;;;;;;;;;;5086142;28;20434;-61
2021/04/14 02:51:13;;;;;;;2.30;1.73;;;;;;;;;;5087038;28;20517;-59
2021/04/14 02:53:39;;;;;;;2.00;1.80;;;;;;;;;;5089213;28;20445;-59
2021/04/14 02:56:05;;;;;;;4.03;2.27;;;;;;;;;;5093196;28;20421;-58
2021/04/14 02:58:31;;;;;;;2.93;2.00;;;;;;;;;;5070483;28;20450;-58
2021/04/14 03:00:58;;;;;;;3.97;2.37;;;;;;;;;;5068486;28;20482;-58
2021/04/14 03:03:26;;;;;;;4.43;2.03;;;;;;;;;;5086433;28;20892;-60
2021/04/14 03:05:52;;;;;;;2.13;1.67;;;;;;;;;;5085165;28;20426;-59
2021/04/14 03:08:19;;;;;;;4.00;2.40;;;;;;;;;;5069369;28;20430;-59
2021/04/14 03:10:45;;;;;;;2.33;1.77;;;;;;;;;;5090820;28;20818;-59
2021/04/14 03:13:11;;;;;;;2.63;2.30;;;;;;;;;;5074691;28;20430;-58
2021/04/14 03:15:39;;;;;;;3.07;2.30;;;;;;;;;;5080782;28;20422;-59
2021/04/14 03:18:05;;;;;;;2.30;2.00;;;;;;;;;;5069645;28;20486;-58
2021/04/14 03:20:31;;;;;;;4.73;2.40;;;;;;;;;;5090689;28;20528;-58
2021/04/14 03:22:58;;;;;;;3.53;2.10;;;;;;;;;;5057035;28;20427;-58
2021/04/14 03:25:25;;;;;;;3.07;2.17;;;;;;;;;;5076288;28;20413;-58
2021/04/14 03:27:52;;;;;;;3.30;1.80;;;;;;;;;;5088746;28;20430;-58
2021/04/14 03:30:18;;;;;;;4.90;2.17;;;;;;;;;;5090558;28;20795;-59
2021/04/14 03:32:44;;;;;;;2.77;2.27;;;;;;;;;;5090149;28;20425;-59
2021/04/14 03:35:10;;;;;;;5.13;2.37;;;;;;;;;;5062585;28;20485;-59
2021/04/14 03:37:36;;;;;;;3.30;2.20;;;;;;;;;;5087751;28;20821;-58
2021/04/14 03:40:03;;;;;;;3.53;2.57;;;;;;;;;;5076883;28;20472;-58
2021/04/14 03:42:29;;;;;;;7.40;3.00;;;;;;;;;;5090622;28;20734;-60
2021/04/14 03:44:57;;;;;;;2.37;2.10;;;;;;;;;;5089359;28;20928;-59
2021/04/14 03:47:23;;;;;;;2.40;2.20;;;;;;;;;;5081191;28;20488;-58
2021/04/14 03:49:51;;;;;;;4.13;2.30;;;;;;;;;;5077632;28;20517;-59
2021/04/14 03:52:17;;;;;;;2.70;2.40;;;;;;;;;;5076669;28;20429;-59
2021/04/14 03:54:43;;;;;;;3.73;2.47;;;;;;;;;;5083486;28;20441;-58
2021/04/14 03:57:09;;;;;;;3.33;2.63;;;;;;;;;;5074965;28;20953;-58
2021/04/14 03:59:35;;;;;;;3.83;2.60;;;;;;;;;;5067866;28;20978;-58
2021/04/14 04:02:01;;;;;;;3.40;2.60;;;;;;;;;;5079543;28;20513;-58
2021/04/14 04:04:27;;;;;;;3.77;2.20;;;;;;;;;;5067164;28;20426;-58
2021/04/14 04:06:54;;;;;;;8.40;3.30;;;;;;;;;;5085663;28;20437;-61
2021/04/14 04:09:20;;;;;;;5.07;2.70;;;;;;;;;;5064902;28;20434;-59
2021/04/14 04:11:46;;;;;;;6.97;2.77;;;;;;;;;;5075292;28;20471;-59
2021/04/14 04:14:12;;;;;;;3.93;2.40;;;;;;;;;;5086188;28;20425;-59
2021/04/14 04:16:38;;;;;;;2.90;2.50;;;;;;;;;;5075995;28;20449;-59
2021/04/14 04:19:04;;;;;;;3.47;2.23;;;;;;;;;;5088637;28;20430;-58
2021/04/14 04:21:31;;;;;;;4.40;2.50;;;;;;;;;;5090356;28;20436;-58
2021/04/14 04:23:57;;;;;;;5.17;2.60;;;;;;;;;;5090544;28;20437;-58
2021/04/14 04:26:23;;;;;;;5.40;2.77;;;;;;;;;;5077924;28;20796;-58
2021/04/14 04:28:49;;;;;;;2.87;2.60;;;;;;;;;;5068113;28;20492;-59
2021/04/14 04:31:15;;;;;;;3.70;2.73;;;;;;;;;;5089953;28;20855;-58
2021/04/14 04:33:41;;;;;;;3.40;2.40;;;;;;;;;;5089865;28;20433;-59
2021/04/14 04:36:07;;;;;;;5.20;2.90;;;;;;;;;;5090662;28;20772;-59
2021/04/14 04:38:34;;;;;;;3.20;2.60;;;;;;;;;;5069626;28;20473;-58
2021/04/14 04:41:03;;;;;;;2.60;2.37;;;;;;;;;;5056257;28;20419;-59
2021/04/14 04:43:29;;;;;;;4.40;2.50;;;;;;;;;;5075079;28;20512;-59
2021/04/14 04:45:56;;;;;;;4.07;2.70;;;;;;;;;;5084691;28;20434;-59
2021/04/14 04:48:22;;;;;;;4.43;3.53;;;;;;;;;;5061263;28;20906;-58
2021/04/14 04:50:48;;;;;;;3.33;2.50;;;;;;;;;;5084769;28;20785;-59
2021/04/14 04:53:17;;;;;;;4.93;3.20;;;;;;;;;;5081988;28;20426;-60
2021/04/14 04:55:43;;;;;;;6.23;2.60;;;;;;;;;;5082158;28;20496;-59
2021/04/14 04:58:10;;;;;;;3.67;3.13;;;;;;;;;;5089813;28;20866;-59
2021/04/14 05:00:36;;;;;;;5.63;2.47;;;;;;;;;;5089412;28;20442;-58
2021/04/14 05:03:03;;;;;;;4.23;2.93;;;;;;;;;;5089912;28;20414;-58
2021/04/14 05:05:30;;;;;;;6.30;3.30;;;;;;;;;;5086529;28;20464;-59
2021/04/14 05:07:56;;;;;;;3.17;2.87;;;;;;;;;;5068853;28;20495;-58
2021/04/14 05:10:23;;;;;;;6.10;2.67;;;;;;;;;;5087557;28;20465;-58
2021/04/14 05:12:50;;;;;;;3.23;2.43;;;;;;;;;;5058846;28;20438;-59
2021/04/14 05:15:16;;;;;;;2.83;2.20;;;;;;;;;;5064163;28;20975;-59
2021/04/14 05:17:42;;;;;;;3.30;2.73;;;;;;;;;;5085069;28;20457;-59
2021/04/14 05:20:08;;;;;;;5.27;2.80;;;;;;;;;;5088256;28;20441;-58
2021/04/14 05:22:34;;;;;;;3.83;2.60;;;;;;;;;;5080305;28;20464;-60
2021/04/14 05:25:01;;;;;;;3.67;2.67;;;;;;;;;;5090224;28;20444;-58
2021/04/14 05:27:29;;;;;;;3.43;2.43;;;;;;;;;;5084485;28;20515;-58
2021/04/14 05:29:55;;;;;;;6.90;2.80;;;;;;;;;;5071178;28;21245;-59
2021/04/14 05:32:21;;;;;;;6.33;3.10;;;;;;;;;;5090062;28;20434;-58
2021/04/14 05:34:47;;;;;;;3.70;2.70;;;;;;;;;;5090388;28;20421;-59
2021/04/14 05:37:13;;;;;;;5.00;3.13;;;;;;;;;;5088235;28;20940;-58
2021/04/14 05:39:39;;;;;;;6.83;3.07;;;;;;;;;;5088582;28;20639;-58
2021/04/14 05:42:05;;;;;;;5.77;2.87;;;;;;;;;;5069765;28;20422;-58
2021/04/14 05:44:31;;;;;;;6.53;3.07;;;;;;;;;;5088993;28;20418;-58
2021/04/14 05:46:57;;;;;;;4.97;3.10;;;;;;;;;;5069114;28;20425;-58
2021/04/14 05:49:23;;;;;;;7.27;3.57;;;;;;;;;;5080180;28;20454;-58
2021/04/14 05:51:49;;;;;;;7.07;3.20;;;;;;;;;;5070696;28;20422;-59
2021/04/14 05:54:15;;;;;;;6.90;3.90;;;;;;;;;;5077507;28;20496;-59
2021/04/14 05:56:41;;;;;;;4.17;3.03;;;;;;;;;;5071397;28;20422;-59
2021/04/14 05:59:07;;;;;;;3.57;3.00;;;;;;;;;;5080767;28;20494;-58
2021/04/14 06:01:37;;;;;;;4.40;3.63;;;;;;;;;;5064595;28;20421;-58
2021/04/14 06:04:03;;;;;;;4.17;3.57;;;;;;;;;;5070586;28;20434;-58
2021/04/14 06:06:29;;;;;;;5.40;3.50;;;;;;;;;;5059538;28;20409;-59
2021/04/14 06:08:55;;;;;;;5.63;3.57;;;;;;;;;;5066592;28;20487;-58
2021/04/14 06:11:21;;;;;;;4.73;3.77;;;;;;;;;;5088867;28;20417;-59
2021/04/14 06:13:47;;;;;;;5.37;3.90;;;;;;;;;;5065930;28;20809;-59
2021/04/14 06:16:15;;;;;;;6.33;4.40;;;;;;;;;;5061307;28;20431;-59
2021/04/14 06:18:42;;;;;;;7.10;4.13;;;;;;;;;;5080640;28;20545;-59
2021/04/14 06:21:08;;;;;;;6.67;4.40;;;;;;;;;;5069991;28;20768;-58
2021/04/14 06:23:34;;;;;;;5.23;3.80;;;;;;;;;;5090429;28;20420;-58
2021/04/14 06:28:32;;;;;;;7.10;3.50;;;;;;;;;;5090853;28;20405;-58
2021/04/14 06:30:59;;;;;;;6.83;3.73;;;;;;;;;;5098269;28;20461;-59
2021/04/14 06:33:26;;;;;;;7.03;3.10;;;;;;;;;;5095696;28;20426;-61
2021/04/14 06:35:53;;;;;;;7.33;3.50;;;;;;;;;;5069103;28;20418;-60
2021/04/14 06:38:22;;;;;;;3.73;3.07;;;;;;;;;;5057240;28;20458;-60
2021/04/14 06:41:21;;;;;;;6.20;4.27;;;;;;;;;;5085239;28;20478;-59
2021/04/14 06:43:55;;;;;;;4.83;3.70;;;;;;;;;;5088413;28;20536;-61
2021/04/14 06:46:26;;;;;;;6.83;4.10;;;;;;;;;;5069960;28;20772;-60
2021/04/14 06:49:11;;;;;;;6.93;3.70;;;;;;;;;;5068551;28;20509;-59
2021/04/14 06:51:42;;;;;;;6.13;4.10;;;;;;;;;;5053632;28;20787;-60
2021/04/14 06:54:26;;;;;;;5.83;3.60;;;;;;;;;;5075142;28;20892;-60
2021/04/14 06:56:55;;;;;;;3.93;3.53;;;;;;;;;;5077362;28;20467;-59
2021/04/14 06:59:22;;;;;;;4.77;3.90;;;;;;;;;;5086325;28;20417;-60
2021/04/14 07:01:49;;;;;;;7.07;4.00;;;;;;;;;;5090282;28;20904;-59
2021/04/14 07:04:18;;;;;;;5.37;4.23;;;;;;;;;;5088315;28;20422;-60
2021/04/14 07:06:46;;;;;;;9.33;4.73;;;;;;;;;;5084543;28;20418;-60
2021/04/14 07:09:32;;;;;;;9.37;5.10;;;;;;;;;;5057304;28;20434;-59
2021/04/14 07:11:59;;;;;;;6.07;4.87;;;;;;;;;;5087256;28;20429;-59
2021/04/14 07:14:26;;;;;;;8.13;5.03;;;;;;;;;;5092734;28;20807;-59
2021/04/14 07:16:58;;;;;;;10.93;5.83;;;;;;;;;;5070767;28;20827;-60
2021/04/14 07:19:30;;;;;;;13.00;6.37;;;;;;;;;;5061792;28;20417;-60
2021/04/14 07:22:09;;;;;;;8.83;6.07;;;;;;;;;;5092156;28;20425;-61
2021/04/14 07:24:36;;;;;;;9.60;6.43;;;;;;;;;;5089104;28;20956;-60
2021/04/14 07:27:11;;;;;;;11.03;7.53;;;;;;;;;;5083987;28;20423;-60
2021/04/14 07:29:38;;;;;;;10.57;7.37;;;;;;;;;;5079188;28;20452;-60
2021/04/14 07:32:06;;;;;;;8.87;6.80;;;;;;;;;;5092773;28;20509;-60
2021/04/14 07:34:48;;;;;;;10.03;7.63;;;;;;;;;;5092784;28;20422;-60
2021/04/14 07:37:20;;;;;;;12.00;7.87;;;;;;;;;;5091555;28;20583;-60
2021/04/14 07:40:11;;;;;;;11.20;6.90;;;;;;;;;;5063964;28;20414;-60
2021/04/14 07:42:45;;;;;;;11.80;7.70;;;;;;;;;;5093149;28;20382;-60
2021/04/14 07:45:18;;;;;;;10.70;8.27;;;;;;;;;;5091695;28;20461;-62
2021/04/14 07:47:53;;;;;;;11.60;7.17;;;;;;;;;;5060188;28;20430;-60
2021/04/14 07:50:24;;;;;;;9.33;7.57;;;;;;;;;;5056011;28;20437;-60
2021/04/14 07:52:50;;;;;;;9.23;7.57;;;;;;;;;;5074762;28;20915;-60
2021/04/14 07:55:31;;;;;;;9.70;7.27;;;;;;;;;;5082228;28;20765;-62
2021/04/14 07:58:13;;;;;;;8.67;7.33;;;;;;;;;;5068943;28;20532;-61
2021/04/14 08:00:41;;;;;;;11.23;7.97;;;;;;;;;;5089910;28;20426;-60
2021/04/14 08:03:08;;;;;;;10.10;7.63;;;;;;;;;;5092252;28;20475;-60
2021/04/14 08:05:34;;;;;;;10.93;6.90;;;;;;;;;;5091925;28;20501;-60
2021/04/14 08:08:00;;;;;;;9.07;7.30;;;;;;;;;;5082488;28;20421;-59
2021/04/14 08:10:31;;;;;;;9.13;7.63;;;;;;;;;;5085082;28;20944;-62
2021/04/14 08:12:59;;;;;;;10.47;7.87;;;;;;;;;;5069910;28;20203;-62
2021/04/14 08:15:45;;;;;;;11.27;7.40;;;;;;;;;;5081717;28;20758;-62
2021/04/14 08:18:17;;;;;;;10.27;7.50;;;;;;;;;;5095168;28;20566;-59
2021/04/14 08:20:44;;;;;;;8.43;6.77;;;;;;;;;;5056633;28;20422;-59
2021/04/14 08:23:13;;;;;;;8.67;6.93;;;;;;;;;;5071491;28;20472;-59
2021/04/14 08:25:47;;;;;;;9.63;7.17;;;;;;;;;;5086549;28;20447;-59
2021/04/14 08:28:13;;;;;;;10.67;7.50;;;;;;;;;;5071684;28;20417;-59
2021/04/14 08:30:40;;;;;;;9.50;7.47;;;;;;;;;;5057665;28;20469;-59
2021/04/14 08:33:15;;;;;;;8.93;7.47;;;;;;;;;;5087207;28;20437;-60
2021/04/14 08:35:46;;;;;;;8.83;7.50;;;;;;;;;;5067158;28;20948;-60
2021/04/14 08:38:24;;;;;;;10.53;7.97;;;;;;;;;;5073300;28;20819;-58
2021/04/14 08:40:55;;;;;;;10.90;7.73;;;;;;;;;;5090189;28;20414;-59
2021/04/14 08:43:21;;;;;;;10.30;8.27;;;;;;;;;;5072585;28;20402;-60
2021/04/14 08:45:47;;;;;;;9.40;8.27;;;;;;;;;;5090731;28;20813;-59
2021/04/14 08:48:16;;;;;;;11.13;8.10;;;;;;;;;;5090778;28;20414;-59
2021/04/14 08:50:44;;;;;;;10.83;8.20;;;;;;;;;;5083558;28;20511;-61
2021/04/14 08:53:15;;;;;;;10.10;8.60;;;;;;;;;;5090777;28;20425;-59
2021/04/14 08:55:41;;;;;;;11.87;8.80;;;;;;;;;;5070745;28;20429;-59
2021/04/14 08:58:07;;;;;;;11.77;8.90;;;;;;;;;;5069947;28;20555;-59
2021/04/14 09:00:33;;;;;;;11.47;9.03;;;;;;;;;;5085352;28;20437;-60
2021/04/14 09:03:05;;;;;;;9.87;7.93;;;;;;;;;;5072703;28;20406;-59
2021/04/14 09:05:32;;;;;;;9.47;7.70;;;;;;;;;;5070669;28;20438;-61
2021/04/14 09:08:00;;;;;;;11.10;8.20;;;;;;;;;;5090016;28;20479;-59
2021/04/14 09:10:28;;;;;;;12.70;8.30;;;;;;;;;;5088421;28;20429;-59
2021/04/14 09:13:00;;;;;;;11.90;8.40;;;;;;;;;;5068944;28;20499;-59
2021/04/14 09:15:26;;;;;;;12.10;8.67;;;;;;;;;;5069993;28;20709;-59
2021/04/14 09:17:57;;;;;;;11.80;8.30;;;;;;;;;;5090583;28;20456;-59
2021/04/14 09:20:25;;;;;;;14.70;7.93;;;;;;;;;;5086581;28;20533;-59
2021/04/14 09:23:18;;;;;;;9.70;7.97;;;;;;;;;;5084438;28;20429;-59
2021/04/14 09:25:48;;;;;;;8.63;7.63;;;;;;;;;;5060519;28;20414;-59
2021/04/14 09:28:34;;;;;;;12.03;9.33;;;;;;;;;;5060686;28;20419;-59
2021/04/14 09:31:13;;;;;;;12.10;8.37;;;;;;;;;;5067201;28;20451;-59
2021/04/14 09:33:41;;;;;;;17.33;8.13;;;;;;;;;;5089924;28;20437;-61
2021/04/14 09:36:09;;;;;;;11.83;9.07;;;;;;;;;;5086266;28;20430;-61
2021/04/14 09:38:43;;;;;;;14.40;10.90;;;;;;;;;;5087149;28;20493;-59
2021/04/14 09:41:11;;;;;;;19.83;9.03;;;;;;;;;;5070975;28;20478;-60
2021/04/14 09:43:39;;;;;;;14.47;9.57;;;;;;;;;;5070846;28;20418;-59
2021/04/14 09:46:28;;;;;;;13.93;9.27;;;;;;;;;;5085484;28;20919;-59
2021/04/14 09:48:54;;;;;;;10.57;8.90;;;;;;;;;;5057268;28;20437;-59
2021/04/14 09:51:34;;;;;;;12.63;8.00;;;;;;;;;;5058948;28;20644;-59
2021/04/14 09:54:20;;;;;;;13.70;8.20;;;;;;;;;;5075060;28;20909;-59
2021/04/14 09:56:52;;;;;;;9.43;7.93;;;;;;;;;;5075841;28;20851;-59
2021/04/14 09:59:24;;;;;;;8.20;6.83;;;;;;;;;;5077579;28;20819;-59
2021/04/14 10:01:51;;;;;;;8.67;7.10;;;;;;;;;;5073310;28;20258;-62
2021/04/14 10:04:24;;;;;;;8.43;6.87;;;;;;;;;;5068396;28;20483;-59
2021/04/14 10:07:10;;;;;;;7.63;5.90;;;;;;;;;;5069315;28;20760;-61
2021/04/14 10:09:37;;;;;;;7.20;6.50;;;;;;;;;;5079654;28;20415;-59
2021/04/14 10:12:11;;;;;;;8.90;6.73;;;;;;;;;;5080331;28;20436;-63
2021/04/14 10:14:56;;;;;;;7.03;6.27;;;;;;;;;;5085167;28;20179;-59
2021/04/14 10:17:24;;;;;;;8.90;6.37;;;;;;;;;;5061205;28;20683;-60
2021/04/14 10:19:56;;;;;;;7.23;6.47;;;;;;;;;;5078737;28;20259;-61
2021/04/14 10:22:36;;;;;;;7.27;6.47;;;;;;;;;;5089333;28;20606;-59
2021/04/14 10:25:05;;;;;;;12.17;8.30;;;;;;;;;;5068181;28;20622;-60
2021/04/14 10:27:31;;;;;;;8.90;7.30;;;;;;;;;;5071092;28;20274;-59
2021/04/14 10:30:00;;;;;;;10.13;7.37;;;;;;;;;;5090537;28;20249;-59
2021/04/14 10:32:28;;;;;;;10.30;7.17;;;;;;;;;;5077207;28;20180;-59
2021/04/14 10:34:54;;;;;;;9.67;7.47;;;;;;;;;;5088364;28;20188;-61
2021/04/14 10:37:27;;;;;;;14.13;8.13;;;;;;;;;;5085983;28;20203;-59
2021/04/14 10:39:53;;;;;;;10.33;7.40;;;;;;;;;;5081154;28;20218;-62
2021/04/14 10:42:25;;;;;;;8.90;6.23;;;;;;;;;;5089739;28;20627;-60
2021/04/14 10:44:54;;;;;;;9.30;6.20;;;;;;;;;;5072440;28;20211;-61
2021/04/14 10:47:26;;;;;;;7.73;6.47;;;;;;;;;;5087721;28;20179;-60
2021/04/14 10:50:00;;;;;;;13.90;7.57;;;;;;;;;;5090685;28;20207;-62
2021/04/14 10:52:28;;;;;;;8.77;6.97;;;;;;;;;;5071903;28;20185;-60
2021/04/14 10:54:56;;;;;;;9.63;7.03;;;;;;;;;;5070334;28;20553;-62
2021/04/14 10:57:28;;;;;;;7.27;6.17;;;;;;;;;;5061138;28;20571;-60
2021/04/14 11:00:00;;;;;;;7.07;6.30;;;;;;;;;;5082175;28;20184;-60
2021/04/14 11:02:28;;;;;;;7.30;6.50;;;;;;;;;;5082888;28;20650;-60
2021/04/14 11:04:55;;;;;;;7.17;6.10;;;;;;;;;;5072928;28;20222;-60
2021/04/14 11:07:23;;;;;;;7.57;6.20;;;;;;;;;;5054386;28;20232;-61
2021/04/14 11:09:51;;;;;;;8.83;6.97;;;;;;;;;;5058471;28;20183;-61
2021/04/14 11:12:18;;;;;;;7.27;6.50;;;;;;;;;;5054520;28;20180;-60
2021/04/14 11:14:46;;;;;;;9.83;6.47;;;;;;;;;;5081091;28;20176;-60
2021/04/14 11:17:18;;;;;;;6.87;5.83;;;;;;;;;;5073899;28;20210;-60
2021/04/14 11:19:54;;;;;;;6.87;6.23;;;;;;;;;;5066184;28;20204;-62
2021/04/14 11:22:21;;;;;;;9.30;6.47;;;;;;;;;;5069919;28;20175;-61
2021/04/14 11:24:49;;;;;;;7.77;6.97;;;;;;;;;;5092998;28;20171;-60
2021/04/14 11:27:23;;;;;;;6.77;5.97;;;;;;;;;;5081202;28;20188;-60
2021/04/14 11:29:51;;;;;;;7.30;6.57;;;;;;;;;;5085427;28;20570;-61
2021/04/14 11:32:21;;;;;;;7.30;6.37;;;;;;;;;;5073974;28;20180;-61
2021/04/14 11:34:54;;;;;;;8.23;6.57;;;;;;;;;;5074375;28;20191;-60
2021/04/14 11:37:24;;;;;;;6.70;5.63;;;;;;;;;;5103387;28;20206;-60
2021/04/14 11:39:52;;;;;;;6.73;6.03;;;;;;;;;;5088730;28;20175;-61
2021/04/14 11:42:20;;;;;;;9.00;6.07;;;;;;;;;;5081170;28;20177;-60
2021/04/14 11:44:51;;;;;;;9.37;7.27;;;;;;;;;;5072897;28;20177;-60
2021/04/14 11:47:22;;;;;;;7.40;6.70;;;;;;;;;;5072218;28;20176;-60
2021/04/14 11:49:48;;;;;;;9.93;7.27;;;;;;;;;;5081608;28;20266;-59
2021/04/14 11:52:43;;;;;;;7.93;7.03;;;;;;;;;;5055943;28;20173;-60
2021/04/14 11:55:12;;;;;;;8.10;7.27;;;;;;;;;;5013071;28;20198;-61
2021/04/14 11:57:43;;;;;;;7.90;6.97;;;;;;;;;;5083367;28;20195;-59
2021/04/14 12:00:09;;;;;;;9.60;7.33;;;;;;;;;;5080484;28;20215;-59
2021/04/14 12:02:37;;;;;;;8.67;7.77;;;;;;;;;;5085000;28;20609;-60
2021/04/14 12:05:05;;;;;;;9.47;7.63;;;;;;;;;;5081083;28;20255;-59
2021/04/14 12:07:31;;;;;;;9.17;8.10;;;;;;;;;;5056163;28;20180;-60
2021/04/14 12:09:57;;;;;;;10.13;8.70;;;;;;;;;;5089485;28;20272;-62
2021/04/14 12:12:24;;;;;;;8.20;7.40;;;;;;;;;;5080933;28;20254;-60
2021/04/14 12:14:50;;;;;;;8.73;7.83;;;;;;;;;;5091599;28;20210;-60
2021/04/14 12:17:21;;;;;;;12.17;8.73;;;;;;;;;;5091921;28;20199;-59
2021/04/14 12:19:48;;;;;;;9.10;7.53;;;;;;;;;;5091708;28;20183;-60
2021/04/14 12:22:14;;;;;;;8.93;7.53;;;;;;;;;;5091831;28;20196;-59
2021/04/14 12:24:42;;;;;;;7.53;6.80;;;;;;;;;;5087489;28;20204;-60
2021/04/14 12:27:08;;;;;;;8.70;7.33;;;;;;;;;;5090349;28;20531;-60
2021/04/14 12:29:34;;;;;;;7.70;6.87;;;;;;;;;;5090187;28;20230;-60
2021/04/14 12:32:00;;;;;;;7.87;7.07;;;;;;;;;;5090572;28;20520;-59
2021/04/14 12:34:26;;;;;;;8.20;7.33;;;;;;;;;;5084020;28;20744;-59
2021/04/14 12:36:52;;;;;;;8.33;7.53;;;;;;;;;;5063044;28;20194;-61
2021/04/14 12:39:19;;;;;;;16.43;8.83;;;;;;;;;;5068769;28;20547;-60
2021/04/14 12:41:45;;;;;;;9.00;7.43;;;;;;;;;;5084491;28;20208;-60
2021/04/14 12:44:11;;;;;;;10.70;7.67;;;;;;;;;;5073284;28;20668;-60
2021/04/14 12:46:38;;;;;;;9.53;7.20;;;;;;;;;;5076328;28;20520;-60
2021/04/14 12:49:05;;;;;;;8.20;7.03;;;;;;;;;;5082817;28;20191;-59
2021/04/14 12:51:37;;;;;;;8.90;7.40;;;;;;;;;;5081634;28;20176;-60
2021/04/14 12:54:12;;;;;;;9.00;6.53;;;;;;;;;;5090160;28;20686;-63
2021/04/14 12:56:39;;;;;;;8.93;7.07;;;;;;;;;;5089852;28;20266;-61
2021/04/14 12:59:12;;;;;;;7.33;6.53;;;;;;;;;;5090379;28;20227;-60
2021/04/14 13:01:39;;;;;;;8.60;6.53;;;;;;;;;;5090400;28;20176;-61
2021/04/14 13:04:07;;;;;;;7.53;6.77;;;;;;;;;;5081159;28;20180;-60
2021/04/14 13:06:37;;;;;;;7.87;6.67;;;;;;;;;;5078893;28;20176;-61
2021/04/14 13:09:04;;;;;;;7.73;7.00;;;;;;;;;;5073988;28;20211;-62
2021/04/14 13:11:32;;;;;;;7.67;6.63;;;;;;;;;;5089437;28;20259;-61
2021/04/14 13:13:58;;;;;;;7.80;5.90;;;;;;;;;;5090541;28;20252;-61
2021/04/14 13:16:27;;;;;;;7.83;6.57;;;;;;;;;;5091236;28;20586;-60
2021/04/14 13:18:53;;;;;;;8.07;5.73;;;;;;;;;;5078243;28;20227;-61
2021/04/14 13:21:22;;;;;;;6.47;5.70;;;;;;;;;;5090165;28;20183;-60
2021/04/14 13:23:56;;;;;;;7.47;6.40;;;;;;;;;;5077298;28;20222;-61
2021/04/14 13:26:30;;;;;;;6.37;5.53;;;;;;;;;;5084519;28;20183;-62
2021/04/14 13:29:03;;;;;;;7.10;5.93;;;;;;;;;;5057296;28;20236;-61
2021/04/14 13:31:34;;;;;;;7.60;6.80;;;;;;;;;;5080484;28;20173;-62
2021/04/14 13:34:15;;;;;;;7.23;6.53;;;;;;;;;;5080390;28;20188;-60
2021/04/14 13:36:46;;;;;;;7.13;6.33;;;;;;;;;;5083613;28;20581;-60
2021/04/14 13:39:24;;;;;;;9.53;6.30;;;;;;;;;;5089512;28;20187;-60
2021/04/14 13:42:04;;;;;;;6.90;6.10;;;;;;;;;;5066236;28;20255;-61
2021/04/14 13:44:36;;;;;;;7.80;6.00;;;;;;;;;;5068247;28;20524;-60
2021/04/14 13:47:05;;;;;;;6.77;6.00;;;;;;;;;;5086970;28;20673;-60
2021/04/14 13:49:31;;;;;;;7.13;6.23;;;;;;;;;;5082368;28;20200;-60
2021/04/14 13:52:01;;;;;;;5.60;5.10;;;;;;;;;;5063814;28;20180;-60
2021/04/14 13:54:28;;;;;;;8.50;6.87;;;;;;;;;;5088675;28;20221;-61
2021/04/14 13:56:55;;;;;;;7.87;5.87;;;;;;;;;;5061972;28;20179;-60
2021/04/14 13:59:40;;;;;;;10.57;6.83;;;;;;;;;;5083903;28;20194;-61
2021/04/14 14:02:09;;;;;;;7.13;5.97;;;;;;;;;;5077359;28;20184;-61
2021/04/14 14:04:36;;;;;;;8.37;6.27;;;;;;;;;;5069381;28;20267;-60
2021/04/14 14:07:07;;;;;;;6.77;5.63;;;;;;;;;;5084323;28;20557;-60
2021/04/14 14:09:51;;;;;;;6.37;5.40;;;;;;;;;;5090303;28;20219;-60
2021/04/14 14:12:22;;;;;;;6.73;5.70;;;;;;;;;;5087195;28;20172;-60
2021/04/14 14:14:49;;;;;;;6.93;5.57;;;;;;;;;;5082588;28;20229;-60
2021/04/14 14:17:23;;;;;;;6.40;5.80;;;;;;;;;;5068263;28;20291;-60
2021/04/14 14:19:49;;;;;;;6.37;5.77;;;;;;;;;;5083424;28;20164;-61
2021/04/14 14:22:18;;;;;;;9.50;6.10;;;;;;;;;;5080297;28;20229;-60
2021/04/14 14:24:44;;;;;;;6.67;5.47;;;;;;;;;;5074892;28;20180;-60
2021/04/14 14:27:10;;;;;;;8.17;5.77;;;;;;;;;;5063290;28;20524;-60
2021/04/14 14:29:38;;;;;;;5.60;5.00;;;;;;;;;;5092615;28;20211;-61
2021/04/14 14:32:06;;;;;;;6.45;5.75;;;;;;;;;;5079314;28;20456;-61
2021/04/14 14:34:33;;;;;;;6.23;5.00;;;;;;;;;;5087292;28;20532;-61
2021/04/14 14:37:01;;;;;;;5.53;5.03;;;;;;;;;;5090719;28;20171;-61
2021/04/14 14:39:36;;;;;;;6.37;5.07;;;;;;;;;;5085217;28;20516;-60
2021/04/14 14:42:08;;;;;;;22.70;6.03;;;;;;;;;;5077541;28;20160;-60
2021/04/14 14:44:40;;;;;;;7.03;4.77;;;;;;;;;;5092168;28;20259;-60
2021/04/14 14:47:10;;;;;;;11.17;4.27;;;;;;;;;;5087465;28;20179;-60
2021/04/14 14:49:37;;;;;;;4.50;3.80;;;;;;;;;;5072401;28;20555;-60
2021/04/14 14:52:06;;;;;;;5.13;4.63;;;;;;;;;;5089664;28;20580;-60
2021/04/14 14:54:33;;;;;;;10.97;7.27;;;;;;;;;;5090160;28;20187;-61